Time;durP1;ratioP1;P1;durP2;ratioP2;P2;SDS_P1;SDS_P2;PMS_P1;PMS_P2;Temp;Humidity;BMP_temperature;BMP_pressure;BME280_temperature;BME280_humidity;BME280_pressure;Samples;Min_cycle;Max_cycle;Signal;HPM_P1;HPM_P2
2021/11/06 00:01:12;;;;;;;9.32;5.75;;;;;;;;;;5041646;28;20234;-79
2021/11/06 00:03:40;;;;;;;6.95;5.97;;;;;;;;;;5039616;28;20203;-79
2021/11/06 00:06:07;;;;;;;9.45;7.00;;;;;;;;;;5040645;28;20228;-80
2021/11/06 00:08:34;;;;;;;11.98;7.15;;;;;;;;;;5042800;28;20203;-80
2021/11/06 00:11:01;;;;;;;13.70;7.50;;;;;;;;;;5050364;28;20208;-79
2021/11/06 00:13:28;;;;;;;11.48;6.18;;;;;;;;;;5050343;28;20274;-79
2021/11/06 00:15:56;;;;;;;10.95;6.15;;;;;;;;;;5050303;28;20226;-79
2021/11/06 00:18:23;;;;;;;10.50;5.97;;;;;;;;;;5050984;28;20214;-79
2021/11/06 00:20:51;;;;;;;9.27;5.93;;;;;;;;;;5051736;28;20211;-79
2021/11/06 00:23:18;;;;;;;7.78;5.68;;;;;;;;;;5049728;28;20203;-79
2021/11/06 00:25:46;;;;;;;9.95;5.15;;;;;;;;;;5042131;28;20234;-79
2021/11/06 00:28:13;;;;;;;7.60;6.00;;;;;;;;;;5041847;28;20211;-79
2021/11/06 00:30:40;;;;;;;10.27;6.15;;;;;;;;;;5054959;28;20294;-79
2021/11/06 00:33:08;;;;;;;9.50;5.28;;;;;;;;;;5053875;28;20207;-79
2021/11/06 00:35:35;;;;;;;11.52;5.85;;;;;;;;;;5047956;28;20283;-79
2021/11/06 00:38:03;;;;;;;10.63;5.80;;;;;;;;;;5054730;28;20271;-80
2021/11/06 00:40:31;;;;;;;7.95;5.70;;;;;;;;;;5056531;28;20226;-80
2021/11/06 00:42:58;;;;;;;8.05;5.28;;;;;;;;;;5045966;28;20210;-79
2021/11/06 00:45:25;;;;;;;9.55;5.47;;;;;;;;;;5055911;28;20242;-79
2021/11/06 00:47:52;;;;;;;9.63;5.70;;;;;;;;;;5055160;28;20218;-79
2021/11/06 00:50:19;;;;;;;8.75;5.43;;;;;;;;;;5043856;28;20211;-79
2021/11/06 00:52:48;;;;;;;6.93;5.35;;;;;;;;;;5054238;28;20204;-79
2021/11/06 00:55:16;;;;;;;8.65;5.80;;;;;;;;;;5052844;28;20203;-79
2021/11/06 00:57:47;;;;;;;8.17;6.60;;;;;;;;;;5045149;28;20579;-79
2021/11/06 01:00:15;;;;;;;10.90;6.10;;;;;;;;;;5041186;28;20447;-79
2021/11/06 01:02:42;;;;;;;9.50;5.82;;;;;;;;;;5039544;28;20242;-80
2021/11/06 01:05:09;;;;;;;8.18;6.65;;;;;;;;;;5038912;28;20255;-80
2021/11/06 01:07:36;;;;;;;12.25;5.80;;;;;;;;;;5038252;28;20212;-80
2021/11/06 01:10:04;;;;;;;7.18;5.53;;;;;;;;;;5038628;28;20204;-80
2021/11/06 01:12:33;;;;;;;6.28;4.97;;;;;;;;;;5046704;28;20204;-81
2021/11/06 01:15:00;;;;;;;10.02;6.65;;;;;;;;;;5049724;28;20207;-81
2021/11/06 01:17:27;;;;;;;7.38;5.00;;;;;;;;;;5050849;28;20211;-80
2021/11/06 01:19:54;;;;;;;8.73;5.40;;;;;;;;;;5049375;28;20203;-80
2021/11/06 01:22:21;;;;;;;7.25;5.80;;;;;;;;;;5048464;28;20457;-79
2021/11/06 01:24:48;;;;;;;10.18;5.97;;;;;;;;;;5047445;28;20223;-79
2021/11/06 01:27:15;;;;;;;9.87;5.90;;;;;;;;;;5040205;28;20251;-79
2021/11/06 01:29:43;;;;;;;6.95;6.18;;;;;;;;;;5040750;28;20477;-79
2021/11/06 01:32:10;;;;;;;11.17;7.00;;;;;;;;;;5040982;28;20203;-79
2021/11/06 01:34:38;;;;;;;9.05;5.45;;;;;;;;;;5040389;28;20497;-79
2021/11/06 01:37:05;;;;;;;10.85;5.88;;;;;;;;;;5039460;28;20721;-79
2021/11/06 01:39:32;;;;;;;12.40;6.17;;;;;;;;;;5039213;28;20571;-79
2021/11/06 01:41:59;;;;;;;10.02;5.47;;;;;;;;;;5038887;28;20454;-79
2021/11/06 01:44:27;;;;;;;11.32;6.07;;;;;;;;;;5038175;28;20551;-79
2021/11/06 01:46:55;;;;;;;7.50;5.65;;;;;;;;;;5039280;28;20223;-79
2021/11/06 01:49:22;;;;;;;12.48;5.80;;;;;;;;;;5039906;28;20273;-79
2021/11/06 01:51:51;;;;;;;9.55;6.75;;;;;;;;;;5042808;28;20207;-79
2021/11/06 01:54:20;;;;;;;7.63;5.30;;;;;;;;;;5043847;28;20208;-79
2021/11/06 01:56:48;;;;;;;8.13;5.97;;;;;;;;;;5043895;28;20219;-79
2021/11/06 01:59:15;;;;;;;10.38;5.53;;;;;;;;;;5044329;28;20657;-79
2021/11/06 02:01:42;;;;;;;11.50;6.30;;;;;;;;;;5045810;28;20203;-79
2021/11/06 02:04:10;;;;;;;7.22;6.38;;;;;;;;;;5045499;28;20425;-79
2021/11/06 02:06:37;;;;;;;11.40;6.53;;;;;;;;;;5053561;28;20228;-79
2021/11/06 02:09:04;;;;;;;12.75;5.95;;;;;;;;;;5054002;28;20234;-80
2021/11/06 02:11:32;;;;;;;8.45;5.03;;;;;;;;;;5043084;28;20658;-80
2021/11/06 02:13:59;;;;;;;12.50;6.33;;;;;;;;;;5040353;28;20410;-80
2021/11/06 02:16:26;;;;;;;11.32;7.03;;;;;;;;;;5039964;28;20976;-80
2021/11/06 02:18:53;;;;;;;12.87;6.00;;;;;;;;;;5041234;28;20624;-80
2021/11/06 02:21:21;;;;;;;9.88;6.05;;;;;;;;;;5041580;28;20461;-80
2021/11/06 02:23:49;;;;;;;8.80;6.63;;;;;;;;;;5041243;28;20199;-79
2021/11/06 02:26:17;;;;;;;11.13;6.65;;;;;;;;;;5040261;28;20485;-80
2021/11/06 02:28:46;;;;;;;12.50;7.40;;;;;;;;;;5039756;28;20204;-80
2021/11/06 02:31:13;;;;;;;10.00;6.07;;;;;;;;;;5041640;28;20526;-80
2021/11/06 02:33:40;;;;;;;11.97;7.57;;;;;;;;;;5040106;28;20448;-80
2021/11/06 02:36:07;;;;;;;12.10;6.70;;;;;;;;;;5039921;28;20491;-79
2021/11/06 02:38:35;;;;;;;16.70;7.10;;;;;;;;;;5040893;28;20500;-79
2021/11/06 02:41:02;;;;;;;11.13;6.13;;;;;;;;;;5039667;28;20446;-79
2021/11/06 02:43:29;;;;;;;12.60;6.05;;;;;;;;;;5039716;28;20500;-79
2021/11/06 02:45:56;;;;;;;11.03;5.43;;;;;;;;;;5041055;28;20247;-80
2021/11/06 02:48:23;;;;;;;9.47;5.50;;;;;;;;;;5046977;28;20446;-79
2021/11/06 02:50:50;;;;;;;12.80;6.90;;;;;;;;;;5047897;28;20458;-79
2021/11/06 02:53:17;;;;;;;10.20;7.28;;;;;;;;;;5049841;28;20421;-79
2021/11/06 02:55:45;;;;;;;12.93;6.43;;;;;;;;;;5040673;28;20254;-79
2021/11/06 02:58:12;;;;;;;11.80;6.10;;;;;;;;;;5040178;28;20516;-79
2021/11/06 03:00:39;;;;;;;12.10;6.40;;;;;;;;;;5039822;28;20452;-79
2021/11/06 03:03:07;;;;;;;10.68;5.88;;;;;;;;;;5038734;28;20446;-79
2021/11/06 03:05:34;;;;;;;10.33;5.33;;;;;;;;;;5039229;28;20293;-79
2021/11/06 03:08:01;;;;;;;15.60;6.70;;;;;;;;;;5041002;28;20493;-79
2021/11/06 03:10:29;;;;;;;10.63;6.40;;;;;;;;;;5040960;28;20890;-79
2021/11/06 03:12:57;;;;;;;15.50;7.30;;;;;;;;;;5039844;28;20476;-79
2021/11/06 03:15:24;;;;;;;11.47;5.43;;;;;;;;;;5039079;28;20497;-79
2021/11/06 03:17:51;;;;;;;12.27;7.03;;;;;;;;;;5038925;28;20425;-80
2021/11/06 03:20:19;;;;;;;12.13;5.95;;;;;;;;;;5042538;28;20421;-80
2021/11/06 03:22:46;;;;;;;10.25;6.68;;;;;;;;;;5040543;28;20204;-79
2021/11/06 03:25:13;;;;;;;11.80;7.20;;;;;;;;;;5042969;28;20223;-79
2021/11/06 03:27:40;;;;;;;16.23;7.65;;;;;;;;;;5040916;28;20488;-79
2021/11/06 03:30:10;;;;;;;12.63;6.50;;;;;;;;;;5051273;28;20204;-79
2021/11/06 03:32:38;;;;;;;12.40;6.77;;;;;;;;;;5052989;28;20199;-79
2021/11/06 03:35:05;;;;;;;11.90;6.78;;;;;;;;;;5052805;28;20894;-79
2021/11/06 03:37:32;;;;;;;12.40;7.60;;;;;;;;;;5051693;28;20270;-79
2021/11/06 03:39:59;;;;;;;14.50;6.77;;;;;;;;;;5052946;28;20204;-79
2021/11/06 03:42:27;;;;;;;13.63;8.20;;;;;;;;;;5054354;28;20448;-79
2021/11/06 03:44:53;;;;;;;9.03;5.73;;;;;;;;;;5053380;28;20518;-79
2021/11/06 03:47:22;;;;;;;12.90;7.47;;;;;;;;;;5052307;28;20545;-79
2021/11/06 03:49:49;;;;;;;10.32;6.05;;;;;;;;;;5054359;28;20409;-79
2021/11/06 03:52:16;;;;;;;9.63;6.65;;;;;;;;;;5057911;28;20212;-79
2021/11/06 03:54:44;;;;;;;15.00;6.22;;;;;;;;;;5049021;28;20204;-79
2021/11/06 03:57:11;;;;;;;6.53;5.10;;;;;;;;;;5051088;28;20283;-79
2021/11/06 03:59:38;;;;;;;7.70;5.37;;;;;;;;;;5055551;28;20473;-79
2021/11/06 04:02:05;;;;;;;11.13;6.37;;;;;;;;;;5050389;28;20442;-81
2021/11/06 04:04:34;;;;;;;13.63;5.82;;;;;;;;;;5038999;28;20433;-80
2021/11/06 04:07:00;;;;;;;7.50;4.50;;;;;;;;;;5037745;28;20231;-79
2021/11/06 04:09:27;;;;;;;13.30;5.53;;;;;;;;;;5038252;28;20450;-79
2021/11/06 04:11:55;;;;;;;13.13;5.63;;;;;;;;;;5037928;28;20470;-79
2021/11/06 04:14:22;;;;;;;10.70;5.47;;;;;;;;;;5038311;28;20997;-81
2021/11/06 04:16:49;;;;;;;8.33;4.63;;;;;;;;;;5038735;28;20441;-79
2021/11/06 04:19:16;;;;;;;11.77;5.50;;;;;;;;;;5045335;28;20430;-80
2021/11/06 04:21:44;;;;;;;8.87;5.80;;;;;;;;;;5048453;28;20461;-80
2021/11/06 04:24:11;;;;;;;10.90;5.83;;;;;;;;;;5039279;28;20450;-80
2021/11/06 04:26:38;;;;;;;9.00;5.00;;;;;;;;;;5037849;28;20892;-80
2021/11/06 04:29:05;;;;;;;9.43;5.20;;;;;;;;;;5037472;28;20421;-79
2021/11/06 04:31:32;;;;;;;6.73;4.60;;;;;;;;;;5037590;28;20417;-79
2021/11/06 04:34:00;;;;;;;10.33;5.07;;;;;;;;;;5037264;28;20863;-80
2021/11/06 04:36:27;;;;;;;11.27;5.45;;;;;;;;;;5036734;28;20835;-80
2021/11/06 04:38:56;;;;;;;15.10;5.63;;;;;;;;;;5037503;28;20683;-80
2021/11/06 04:41:23;;;;;;;11.90;5.70;;;;;;;;;;5042249;28;20462;-80
2021/11/06 04:43:50;;;;;;;8.90;4.10;;;;;;;;;;5044465;28;20451;-79
2021/11/06 04:46:17;;;;;;;9.97;5.97;;;;;;;;;;5037853;28;20904;-80
2021/11/06 04:48:44;;;;;;;12.73;4.93;;;;;;;;;;5037401;28;20828;-81
2021/11/06 04:51:10;;;;;;;10.90;4.17;;;;;;;;;;5037018;28;20925;-81
2021/11/06 04:53:39;;;;;;;5.43;3.73;;;;;;;;;;5045983;28;20423;-81
2021/11/06 04:56:07;;;;;;;8.07;4.57;;;;;;;;;;5048806;28;20468;-81
2021/11/06 04:58:34;;;;;;;11.10;5.17;;;;;;;;;;5044068;28;20438;-81
2021/11/06 05:01:01;;;;;;;7.60;4.37;;;;;;;;;;5037185;28;20799;-81
2021/11/06 05:03:28;;;;;;;8.57;4.10;;;;;;;;;;5036845;28;20421;-80
2021/11/06 05:05:55;;;;;;;6.97;3.63;;;;;;;;;;5066174;22;20472;-81
2021/11/06 05:08:22;;;;;;;6.23;4.03;;;;;;;;;;5063936;28;20879;-81
2021/11/06 05:10:49;;;;;;;11.07;4.32;;;;;;;;;;5060687;28;20415;-81
2021/11/06 05:13:18;;;;;;;5.97;3.37;;;;;;;;;;5062423;28;20641;-82
2021/11/06 05:15:46;;;;;;;7.87;5.20;;;;;;;;;;5064776;28;20508;-80
2021/11/06 05:18:16;;;;;;;8.40;3.80;;;;;;;;;;5062997;28;20445;-82
2021/11/06 05:20:43;;;;;;;4.32;2.30;;;;;;;;;;5061651;28;20441;-82
2021/11/06 05:23:12;;;;;;;6.93;3.50;;;;;;;;;;5061589;28;20281;-84
2021/11/06 05:25:39;;;;;;;5.10;3.70;;;;;;;;;;5059050;28;20457;-83
2021/11/06 05:28:06;;;;;;;5.97;4.33;;;;;;;;;;5058888;28;20449;-81
2021/11/06 05:30:34;;;;;;;6.80;4.23;;;;;;;;;;5066625;28;20460;-80
2021/11/06 05:33:01;;;;;;;15.70;9.10;;;;;;;;;;5058953;28;20456;-81
2021/11/06 05:35:28;;;;;;;15.20;9.20;;;;;;;;;;5057724;28;20469;-81
2021/11/06 05:37:55;;;;;;;12.93;8.03;;;;;;;;;;5057734;28;20465;-79
2021/11/06 05:40:22;;;;;;;8.90;4.60;;;;;;;;;;5058309;28;20458;-81
2021/11/06 05:42:49;;;;;;;7.77;3.97;;;;;;;;;;5058294;28;20798;-81
2021/11/06 05:45:17;;;;;;;8.63;4.73;;;;;;;;;;5058031;28;20864;-81
2021/11/06 05:47:45;;;;;;;8.90;6.50;;;;;;;;;;5058966;28;20523;-81
2021/11/06 05:50:13;;;;;;;7.03;4.97;;;;;;;;;;5062607;28;20860;-80
2021/11/06 05:52:41;;;;;;;6.63;4.47;;;;;;;;;;5063504;28;20441;-78
2021/11/06 05:55:09;;;;;;;7.13;4.73;;;;;;;;;;5059750;28;20963;-80
2021/11/06 05:57:36;;;;;;;13.07;3.93;;;;;;;;;;5057264;28;21034;-80
2021/11/06 06:00:04;;;;;;;5.83;3.97;;;;;;;;;;5057399;28;20428;-80
2021/11/06 06:02:32;;;;;;;7.43;3.33;;;;;;;;;;5064982;28;20430;-79
2021/11/06 06:05:00;;;;;;;4.33;3.50;;;;;;;;;;5077458;28;20422;-81
2021/11/06 06:07:27;;;;;;;10.93;3.93;;;;;;;;;;5077848;28;20469;-77
2021/11/06 06:09:54;;;;;;;7.73;3.63;;;;;;;;;;5077658;28;20445;-79
2021/11/06 06:12:21;;;;;;;9.07;4.53;;;;;;;;;;5078349;28;20421;-78
2021/11/06 06:14:48;;;;;;;11.03;4.30;;;;;;;;;;5077594;28;20446;-78
2021/11/06 06:17:15;;;;;;;26.93;5.00;;;;;;;;;;5078032;28;20456;-81
2021/11/06 06:19:42;;;;;;;5.40;3.80;;;;;;;;;;5063961;28;20491;-81
2021/11/06 06:22:10;;;;;;;12.00;6.20;;;;;;;;;;5060685;28;20478;-81
2021/11/06 06:24:37;;;;;;;10.17;4.50;;;;;;;;;;5059210;28;20496;-81
2021/11/06 06:27:04;;;;;;;21.27;13.30;;;;;;;;;;5059039;28;20477;-81
2021/11/06 06:29:33;;;;;;;13.87;10.73;;;;;;;;;;5073223;28;20438;-80
2021/11/06 06:32:02;;;;;;;8.60;6.90;;;;;;;;;;5067141;28;20495;-79
2021/11/06 06:34:29;;;;;;;6.87;5.63;;;;;;;;;;5055638;28;20449;-79
2021/11/06 06:36:56;;;;;;;6.77;4.77;;;;;;;;;;5060787;28;20461;-80
2021/11/06 06:39:24;;;;;;;10.17;5.23;;;;;;;;;;5061470;28;20484;-79
2021/11/06 06:41:51;;;;;;;6.10;4.13;;;;;;;;;;5060744;28;20815;-81
2021/11/06 06:44:18;;;;;;;5.67;4.07;;;;;;;;;;5061199;28;20468;-80
2021/11/06 06:46:45;;;;;;;13.10;4.17;;;;;;;;;;5061974;28;20534;-80
2021/11/06 06:49:12;;;;;;;8.80;4.80;;;;;;;;;;5061602;28;20424;-80
2021/11/06 06:51:39;;;;;;;11.17;4.60;;;;;;;;;;5061882;28;20867;-81
2021/11/06 06:54:06;;;;;;;7.17;4.30;;;;;;;;;;5060404;28;21014;-82
2021/11/06 06:56:35;;;;;;;7.43;4.65;;;;;;;;;;5062175;28;20557;-81
2021/11/06 06:59:02;;;;;;;9.33;5.27;;;;;;;;;;5064132;28;20203;-81
2021/11/06 07:01:29;;;;;;;8.17;5.17;;;;;;;;;;5062445;28;20479;-82
2021/11/06 07:03:57;;;;;;;8.00;4.60;;;;;;;;;;5062112;28;20421;-81
2021/11/06 07:06:24;;;;;;;5.07;3.60;;;;;;;;;;5063939;28;20466;-79
2021/11/06 07:08:51;;;;;;;8.50;4.10;;;;;;;;;;5067578;28;20450;-79
2021/11/06 07:11:18;;;;;;;8.50;3.93;;;;;;;;;;5063523;28;20207;-79
2021/11/06 07:13:47;;;;;;;7.47;4.47;;;;;;;;;;5063632;28;20488;-79
2021/11/06 07:16:14;;;;;;;5.07;3.60;;;;;;;;;;5064302;28;20835;-81
2021/11/06 07:18:41;;;;;;;8.10;3.90;;;;;;;;;;5061006;28;20450;-80
2021/11/06 07:21:08;;;;;;;5.97;4.40;;;;;;;;;;5060707;28;20454;-81
2021/11/06 07:23:35;;;;;;;6.13;4.13;;;;;;;;;;5060677;28;20446;-81
2021/11/06 07:26:03;;;;;;;4.47;3.60;;;;;;;;;;5060611;28;20470;-79
2021/11/06 07:28:31;;;;;;;6.57;3.97;;;;;;;;;;5068211;28;20461;-79
2021/11/06 07:31:00;;;;;;;5.63;3.23;;;;;;;;;;5067578;28;20931;-79
2021/11/06 07:33:27;;;;;;;16.30;3.70;;;;;;;;;;5066383;28;20513;-81
2021/11/06 07:35:54;;;;;;;6.10;3.40;;;;;;;;;;5065791;28;20469;-78
2021/11/06 07:38:21;;;;;;;7.67;4.90;;;;;;;;;;5066639;28;20853;-79
2021/11/06 07:40:48;;;;;;;8.30;4.37;;;;;;;;;;5067053;28;20468;-81
2021/11/06 07:43:15;;;;;;;5.30;3.80;;;;;;;;;;5065750;28;20438;-83
2021/11/06 07:45:42;;;;;;;5.70;3.60;;;;;;;;;;5066350;28;20472;-82
2021/11/06 07:48:10;;;;;;;6.80;3.90;;;;;;;;;;5063910;28;20485;-81
2021/11/06 07:50:37;;;;;;;6.37;3.87;;;;;;;;;;5065904;28;20424;-82
2021/11/06 07:53:04;;;;;;;6.47;3.90;;;;;;;;;;5064991;28;20428;-81
2021/11/06 07:55:32;;;;;;;6.80;4.30;;;;;;;;;;5065051;28;20445;-81
2021/11/06 07:57:59;;;;;;;9.33;4.30;;;;;;;;;;5068925;28;20955;-81
2021/11/06 08:00:26;;;;;;;6.17;4.23;;;;;;;;;;5070610;28;20503;-81
2021/11/06 08:02:53;;;;;;;4.90;3.90;;;;;;;;;;5068526;28;20427;-82
2021/11/06 08:05:21;;;;;;;10.40;4.67;;;;;;;;;;5066752;28;20445;-81
2021/11/06 08:07:49;;;;;;;5.60;3.90;;;;;;;;;;5064531;28;20462;-81
2021/11/06 08:10:16;;;;;;;7.87;3.97;;;;;;;;;;5063754;28;20446;-82
2021/11/06 08:12:43;;;;;;;7.13;4.80;;;;;;;;;;5064287;28;20460;-81
2021/11/06 08:15:11;;;;;;;6.53;4.87;;;;;;;;;;5061585;28;20420;-81
2021/11/06 08:17:38;;;;;;;10.13;5.60;;;;;;;;;;5061068;28;20493;-81
2021/11/06 08:20:05;;;;;;;4.80;4.20;;;;;;;;;;5064228;28;20450;-80
2021/11/06 08:22:34;;;;;;;7.83;4.30;;;;;;;;;;5063899;28;20450;-80
2021/11/06 08:25:01;;;;;;;10.17;4.57;;;;;;;;;;5060715;28;20476;-80
2021/11/06 08:27:27;;;;;;;6.27;4.80;;;;;;;;;;5059944;28;20851;-82
2021/11/06 08:29:54;;;;;;;5.13;4.67;;;;;;;;;;5061053;28;20452;-80
2021/11/06 08:32:21;;;;;;;6.57;5.57;;;;;;;;;;5059173;28;20449;-81
2021/11/06 08:34:48;;;;;;;5.30;4.80;;;;;;;;;;5059927;28;20824;-80
2021/11/06 08:37:15;;;;;;;9.47;4.90;;;;;;;;;;5058995;28;20493;-81
2021/11/06 08:39:44;;;;;;;9.67;4.80;;;;;;;;;;5062428;28;20473;-80
2021/11/06 08:42:11;;;;;;;9.27;5.43;;;;;;;;;;5070633;28;20442;-80
2021/11/06 08:44:39;;;;;;;8.60;5.73;;;;;;;;;;5072212;28;20441;-79
2021/11/06 08:47:06;;;;;;;7.20;5.20;;;;;;;;;;5066053;28;21003;-79
2021/11/06 08:49:33;;;;;;;5.90;4.37;;;;;;;;;;5058393;28;20968;-81
2021/11/06 08:51:59;;;;;;;6.53;4.90;;;;;;;;;;5057500;28;20481;-79
2021/11/06 08:54:27;;;;;;;5.17;4.43;;;;;;;;;;5058510;28;20446;-80
2021/11/06 08:56:55;;;;;;;11.33;5.07;;;;;;;;;;5058723;28;20461;-80
2021/11/06 08:59:23;;;;;;;8.90;4.83;;;;;;;;;;5059302;28;20454;-82
2021/11/06 09:01:51;;;;;;;6.70;5.03;;;;;;;;;;5059279;28;20441;-81
2021/11/06 09:04:18;;;;;;;9.63;5.60;;;;;;;;;;5059064;28;20454;-81
2021/11/06 09:06:45;;;;;;;9.53;4.43;;;;;;;;;;5059158;28;20443;-82
2021/11/06 09:09:14;;;;;;;6.17;5.07;;;;;;;;;;5059529;28;20818;-81
2021/11/06 09:11:41;;;;;;;6.10;4.80;;;;;;;;;;5058236;28;20963;-81
2021/11/06 09:14:10;;;;;;;8.60;5.60;;;;;;;;;;5058319;28;20495;-81
2021/11/06 09:16:37;;;;;;;7.07;4.60;;;;;;;;;;5058633;28;20459;-81
2021/11/06 09:19:05;;;;;;;10.93;4.70;;;;;;;;;;5058724;28;20453;-81
2021/11/06 09:21:33;;;;;;;5.50;5.00;;;;;;;;;;5070085;28;20445;-79
2021/11/06 09:24:02;;;;;;;5.60;5.07;;;;;;;;;;5069826;28;20446;-79
2021/11/06 09:26:31;;;;;;;7.00;5.40;;;;;;;;;;5068372;28;20476;-78
2021/11/06 09:28:58;;;;;;;6.70;5.27;;;;;;;;;;5065471;28;20456;-80
2021/11/06 09:31:26;;;;;;;6.13;5.50;;;;;;;;;;5067633;28;20438;-78
2021/11/06 09:33:53;;;;;;;10.73;6.13;;;;;;;;;;5069863;28;20445;-80
2021/11/06 09:36:20;;;;;;;6.60;5.60;;;;;;;;;;5073306;28;20477;-79
2021/11/06 09:38:47;;;;;;;6.30;5.70;;;;;;;;;;5073783;28;20870;-78
2021/11/06 09:41:16;;;;;;;7.40;5.70;;;;;;;;;;5071980;28;20465;-79
2021/11/06 09:43:43;;;;;;;6.20;5.60;;;;;;;;;;5073023;28;20422;-79
2021/11/06 09:46:10;;;;;;;5.87;4.00;;;;;;;;;;5073787;28;20458;-79
2021/11/06 09:48:40;;;;;;;6.03;5.37;;;;;;;;;;5071334;28;20469;-81
2021/11/06 09:51:07;;;;;;;5.57;5.03;;;;;;;;;;5066827;28;20441;-79
2021/11/06 09:53:37;;;;;;;6.13;4.87;;;;;;;;;;5066180;28;20446;-79
2021/11/06 09:56:05;;;;;;;5.90;4.80;;;;;;;;;;5063605;28;20448;-79
2021/11/06 09:58:33;;;;;;;5.43;4.60;;;;;;;;;;5063643;28;20460;-80
2021/11/06 10:01:00;;;;;;;6.50;4.50;;;;;;;;;;5064322;28;20468;-80
2021/11/06 10:03:27;;;;;;;5.93;5.43;;;;;;;;;;5063915;28;20449;-79
2021/11/06 10:05:56;;;;;;;6.30;4.57;;;;;;;;;;5064880;28;20599;-79
2021/11/06 10:08:24;;;;;;;7.20;5.00;;;;;;;;;;5066664;28;20465;-81
2021/11/06 10:10:52;;;;;;;5.57;4.50;;;;;;;;;;5070051;28;20445;-78
2021/11/06 10:13:19;;;;;;;5.73;4.27;;;;;;;;;;5064602;28;20452;-79
2021/11/06 10:15:47;;;;;;;7.20;4.50;;;;;;;;;;5062016;28;20465;-80
2021/11/06 10:18:15;;;;;;;5.03;4.40;;;;;;;;;;5065685;28;20442;-80
2021/11/06 10:20:42;;;;;;;4.57;4.17;;;;;;;;;;5063227;28;20476;-79
2021/11/06 10:23:10;;;;;;;4.80;4.40;;;;;;;;;;5062492;28;20860;-79
2021/11/06 10:25:38;;;;;;;6.87;5.17;;;;;;;;;;5062815;28;20423;-78
2021/11/06 10:28:06;;;;;;;6.20;4.80;;;;;;;;;;5065760;28;20999;-79
2021/11/06 10:30:35;;;;;;;4.93;4.53;;;;;;;;;;5062216;28;20544;-79
2021/11/06 10:33:05;;;;;;;7.40;4.00;;;;;;;;;;5064222;28;20481;-81
2021/11/06 10:35:33;;;;;;;6.10;4.43;;;;;;;;;;5061661;28;20448;-81
2021/11/06 10:38:01;;;;;;;4.93;4.10;;;;;;;;;;5061735;28;20445;-81
2021/11/06 10:40:33;;;;;;;5.80;4.50;;;;;;;;;;5061345;28;20449;-81
2021/11/06 10:43:01;;;;;;;5.93;4.63;;;;;;;;;;5061423;28;20886;-80
2021/11/06 10:45:29;;;;;;;5.47;4.03;;;;;;;;;;5060325;28;20507;-81
2021/11/06 10:47:57;;;;;;;4.80;3.13;;;;;;;;;;5060170;28;20463;-80
2021/11/06 10:50:55;;;;;;;4.20;3.60;;;;;;;;;;5060116;28;20536;-79
2021/11/06 10:53:41;;;;;;;4.20;3.80;;;;;;;;;;5014536;28;20425;-75
2021/11/06 10:56:22;;;;;;;3.67;3.20;;;;;;;;;;5052077;28;20473;-77
2021/11/06 10:58:50;;;;;;;3.90;3.53;;;;;;;;;;5056778;28;20421;-76
2021/11/06 11:01:19;;;;;;;4.43;3.80;;;;;;;;;;5056305;28;20477;-76
2021/11/06 11:03:48;;;;;;;4.37;3.57;;;;;;;;;;5056997;28;20491;-76
2021/11/06 11:06:16;;;;;;;8.23;4.50;;;;;;;;;;5077008;22;20506;-80
2021/11/06 11:08:44;;;;;;;7.33;3.73;;;;;;;;;;5041134;28;20559;-77
2021/11/06 11:11:12;;;;;;;5.33;3.87;;;;;;;;;;5041252;28;20474;-81
2021/11/06 11:13:49;;;;;;;7.10;4.10;;;;;;;;;;5041388;28;20438;-77
2021/11/06 11:16:16;;;;;;;7.20;4.00;;;;;;;;;;5039243;28;20486;-76
2021/11/06 11:18:44;;;;;;;5.73;4.00;;;;;;;;;;5040987;28;20998;-80
2021/11/06 11:21:16;;;;;;;5.67;3.80;;;;;;;;;;5043247;28;20545;-79
2021/11/06 11:23:45;;;;;;;5.93;4.03;;;;;;;;;;5038214;28;20484;-76
2021/11/06 11:26:12;;;;;;;4.93;4.17;;;;;;;;;;5036065;28;20903;-76
2021/11/06 11:28:39;;;;;;;3.60;3.30;;;;;;;;;;5035293;28;20448;-76
2021/11/06 11:31:08;;;;;;;5.77;4.20;;;;;;;;;;5036441;28;20447;-77
2021/11/06 11:33:35;;;;;;;4.40;4.03;;;;;;;;;;5035952;28;20483;-77
2021/11/06 11:36:06;;;;;;;6.00;3.93;;;;;;;;;;5035936;28;20482;-77
2021/11/06 11:38:35;;;;;;;4.87;3.97;;;;;;;;;;5036105;28;20393;-76
2021/11/06 11:41:26;;;;;;;5.17;4.03;;;;;;;;;;5036735;28;20425;-76
2021/11/06 11:43:57;;;;;;;6.73;3.90;;;;;;;;;;5022632;28;20525;-76
2021/11/06 11:46:33;;;;;;;4.47;4.07;;;;;;;;;;5036498;28;20444;-76
2021/11/06 11:49:00;;;;;;;7.57;4.93;;;;;;;;;;5034887;28;20501;-77
2021/11/06 11:51:31;;;;;;;6.57;4.87;;;;;;;;;;5035400;28;20425;-76
2021/11/06 11:54:01;;;;;;;4.70;3.90;;;;;;;;;;5036199;28;20487;-77
2021/11/06 11:56:29;;;;;;;5.83;4.37;;;;;;;;;;5035664;28;20466;-77
2021/11/06 11:58:56;;;;;;;6.13;3.80;;;;;;;;;;5035808;28;20449;-76
2021/11/06 12:01:23;;;;;;;5.80;3.97;;;;;;;;;;5036409;28;20505;-76
2021/11/06 12:03:53;;;;;;;5.90;4.63;;;;;;;;;;5035630;28;20879;-77
2021/11/06 12:06:21;;;;;;;4.80;4.13;;;;;;;;;;5034256;28;20517;-77
2021/11/06 12:08:48;;;;;;;6.27;4.00;;;;;;;;;;5035454;28;20462;-77
2021/11/06 12:11:26;;;;;;;5.67;4.50;;;;;;;;;;5037207;28;20450;-77
2021/11/06 12:13:54;;;;;;;4.80;4.40;;;;;;;;;;5037405;28;20435;-77
2021/11/06 12:16:23;;;;;;;4.60;4.20;;;;;;;;;;5037409;28;20513;-77
2021/11/06 12:18:54;;;;;;;6.53;4.80;;;;;;;;;;5037801;28;20533;-76
2021/11/06 12:21:22;;;;;;;5.20;3.40;;;;;;;;;;5036821;28;20431;-76
2021/11/06 12:23:51;;;;;;;4.73;3.70;;;;;;;;;;5038824;28;20450;-75
2021/11/06 12:26:19;;;;;;;4.37;4.00;;;;;;;;;;5039990;28;20475;-77
2021/11/06 12:28:47;;;;;;;4.47;4.07;;;;;;;;;;5040957;28;20493;-78
2021/11/06 12:31:27;;;;;;;8.60;4.97;;;;;;;;;;5039547;28;20438;-78
2021/11/06 12:33:55;;;;;;;6.67;3.53;;;;;;;;;;5037484;28;20493;-78
2021/11/06 12:36:23;;;;;;;5.33;4.60;;;;;;;;;;5040514;28;20470;-78
2021/11/06 12:38:50;;;;;;;7.30;4.93;;;;;;;;;;5038053;28;20450;-81
2021/11/06 12:41:26;;;;;;;9.87;4.27;;;;;;;;;;5049274;28;20420;-82
2021/11/06 12:43:53;;;;;;;4.47;3.80;;;;;;;;;;5041405;28;20468;-82
2021/11/06 12:46:23;;;;;;;3.57;3.30;;;;;;;;;;5039277;28;20499;-83
2021/11/06 12:48:50;;;;;;;4.07;3.67;;;;;;;;;;5042231;28;20482;-82
2021/11/06 12:51:20;;;;;;;6.33;3.30;;;;;;;;;;5045887;28;20438;-82
2021/11/06 12:53:48;;;;;;;4.53;3.77;;;;;;;;;;5042764;28;20460;-82
2021/11/06 12:56:16;;;;;;;4.50;3.53;;;;;;;;;;5041251;28;20466;-83
2021/11/06 12:58:44;;;;;;;5.23;4.20;;;;;;;;;;5040245;28;20505;-82
2021/11/06 13:01:29;;;;;;;3.70;3.40;;;;;;;;;;5039246;28;20446;-81
2021/11/06 13:03:57;;;;;;;4.43;3.70;;;;;;;;;;5039981;28;20870;-81
2021/11/06 13:06:28;;;;;;;4.77;4.07;;;;;;;;;;5039528;28;20501;-82
2021/11/06 13:09:01;;;;;;;8.47;4.13;;;;;;;;;;5041154;28;20532;-82
2021/11/06 13:11:44;;;;;;;5.70;4.40;;;;;;;;;;5041764;28;20500;-82
2021/11/06 13:14:13;;;;;;;4.80;4.40;;;;;;;;;;5050249;28;20475;-81
2021/11/06 13:16:40;;;;;;;7.60;5.47;;;;;;;;;;5054383;28;20458;-80
2021/11/06 13:19:07;;;;;;;5.97;5.37;;;;;;;;;;5052326;28;20445;-79
2021/11/06 13:21:44;;;;;;;5.50;5.00;;;;;;;;;;5044422;28;20467;-80
2021/11/06 13:24:11;;;;;;;5.93;5.40;;;;;;;;;;5047424;28;20446;-80
2021/11/06 13:26:38;;;;;;;6.10;5.47;;;;;;;;;;5049860;28;20840;-84
2021/11/06 13:29:05;;;;;;;6.67;4.00;;;;;;;;;;5054192;28;20481;-82
2021/11/06 13:31:32;;;;;;;5.50;5.03;;;;;;;;;;5049417;28;20496;-82
2021/11/06 13:33:59;;;;;;;5.73;5.23;;;;;;;;;;5053021;28;20453;-81
2021/11/06 13:36:26;;;;;;;5.80;4.93;;;;;;;;;;5050712;28;20500;-81
2021/11/06 13:38:56;;;;;;;9.13;5.10;;;;;;;;;;5056234;28;20453;-81
2021/11/06 13:41:24;;;;;;;5.40;5.00;;;;;;;;;;5056238;28;20542;-81
2021/11/06 13:43:53;;;;;;;7.80;4.93;;;;;;;;;;5054935;28;20457;-80
2021/11/06 13:46:23;;;;;;;6.17;5.10;;;;;;;;;;5055469;28;20458;-80
2021/11/06 13:48:51;;;;;;;11.80;5.60;;;;;;;;;;5058837;28;20466;-82
2021/11/06 13:51:20;;;;;;;8.80;5.57;;;;;;;;;;5058951;28;20401;-83
2021/11/06 13:54:00;;;;;;;7.10;6.07;;;;;;;;;;5058481;28;20456;-80
2021/11/06 13:56:27;;;;;;;8.83;5.00;;;;;;;;;;5059017;28;20530;-81
2021/11/06 13:58:55;;;;;;;8.13;6.13;;;;;;;;;;5059303;28;20434;-81
2021/11/06 14:01:23;;;;;;;6.33;5.30;;;;;;;;;;5060294;28;20438;-82
2021/11/06 14:03:51;;;;;;;5.77;5.27;;;;;;;;;;5060048;28;20505;-81
2021/11/06 14:06:18;;;;;;;10.07;6.27;;;;;;;;;;5060354;28;20488;-81
2021/11/06 14:08:45;;;;;;;8.17;5.93;;;;;;;;;;5057817;28;20505;-79
2021/11/06 14:11:13;;;;;;;6.63;5.53;;;;;;;;;;5059542;28;20434;-81
2021/11/06 14:13:40;;;;;;;8.67;6.10;;;;;;;;;;5058255;28;20434;-81
2021/11/06 14:16:15;;;;;;;10.43;5.80;;;;;;;;;;5055879;28;20477;-80
2021/11/06 14:18:45;;;;;;;7.13;6.27;;;;;;;;;;5056912;28;20417;-81
2021/11/06 14:21:14;;;;;;;6.33;5.50;;;;;;;;;;5056157;28;20496;-82
2021/11/06 14:23:41;;;;;;;8.27;6.23;;;;;;;;;;5054369;28;20442;-82
2021/11/06 14:26:14;;;;;;;8.47;6.80;;;;;;;;;;5049714;28;20523;-82
2021/11/06 14:28:48;;;;;;;9.53;6.83;;;;;;;;;;5050446;28;20482;-81
2021/11/06 14:31:15;;;;;;;6.87;6.17;;;;;;;;;;5054791;28;20445;-82
2021/11/06 14:33:44;;;;;;;8.07;5.70;;;;;;;;;;5057411;28;20412;-81
2021/11/06 14:36:14;;;;;;;10.50;7.40;;;;;;;;;;5060126;28;20454;-81
2021/11/06 14:38:48;;;;;;;8.00;6.40;;;;;;;;;;5059019;28;20434;-81
2021/11/06 14:41:16;;;;;;;8.10;6.33;;;;;;;;;;5059522;28;20568;-80
2021/11/06 14:43:50;;;;;;;8.07;5.90;;;;;;;;;;5059178;28;20432;-80